createdAt,value
2023-02-19T00:00:53.502Z,102246.11
2023-02-19T00:03:43.224Z,102249.47
2023-02-19T00:06:51.834Z,102254.83
2023-02-19T00:09:42.432Z,102260.58
2023-02-19T00:12:51.107Z,102260.61
2023-02-19T00:15:51.099Z,102268.66
2023-02-19T00:18:39.590Z,102273.11
2023-02-19T00:21:31.479Z,102273.20
2023-02-19T00:24:23.317Z,102280.13
2023-02-19T00:27:11.989Z,102278.21
2023-02-19T00:30:14.250Z,102272.48
2023-02-19T00:33:23.256Z,102270.41
2023-02-19T00:36:34.720Z,102269.30
2023-02-19T00:39:36.331Z,102269.95
2023-02-19T00:42:25.287Z,102273.39
2023-02-19T00:45:35.246Z,102281.38
2023-02-19T00:48:44.239Z,102288.14
2023-02-19T00:51:53.092Z,102298.60
2023-02-19T00:55:02.001Z,102304.80
2023-02-19T00:57:53.019Z,102312.21
2023-02-19T01:00:52.180Z,102312.23
2023-02-19T01:04:23.335Z,102312.71
2023-02-19T01:07:29.492Z,102308.83
2023-02-19T01:10:38.602Z,102310.50
2023-02-19T01:13:28.779Z,102310.41
2023-02-19T01:16:37.912Z,102311.76
2023-02-19T01:19:30.070Z,102305.98
2023-02-19T01:22:31.853Z,102303.76
2023-02-19T01:25:29.947Z,102297.80
2023-02-19T01:28:19.035Z,102295.39
2023-02-19T01:31:22.234Z,102289.98
2023-02-19T01:34:32.895Z,102292.88
2023-02-19T01:37:29.187Z,102297.56
2023-02-19T01:40:27.135Z,102303.36
2023-02-19T01:43:55.020Z,102314.94
2023-02-19T01:46:53.738Z,102318.48
2023-02-19T01:49:56.466Z,102327.48
2023-02-19T01:53:07.129Z,102330.35
2023-02-19T01:56:17.674Z,102327.11
2023-02-19T01:59:19.883Z,102326.77
2023-02-19T02:02:29.394Z,102321.27
2023-02-19T02:05:45.162Z,102321.77
2023-02-19T02:08:52.821Z,102322.48
2023-02-19T02:12:01.912Z,102315.23
2023-02-19T02:14:50.617Z,102319.05
2023-02-19T02:17:51.622Z,102316.33
2023-02-19T02:21:04.190Z,102312.29
2023-02-19T02:24:19.641Z,102315.42
2023-02-19T02:27:42.134Z,102322.02
2023-02-19T02:30:45.148Z,102330.34
2023-02-19T02:33:57.523Z,102346.40
2023-02-19T02:37:08.389Z,102359.46
2023-02-19T02:40:11.368Z,102355.68
2023-02-19T02:43:20.509Z,102350.20
2023-02-19T02:46:35.242Z,102352.52
2023-02-19T02:50:04.733Z,102354.80
2023-02-19T02:53:36.700Z,102358.10
2023-02-19T02:56:46.771Z,102360.59
2023-02-19T02:59:55.787Z,102365.41
2023-02-19T03:02:57.547Z,102367.61
2023-02-19T03:06:09.297Z,102374.56
2023-02-19T03:09:20.886Z,102375.49
2023-02-19T03:12:33.809Z,102380.85
2023-02-19T03:16:03.356Z,102378.40
2023-02-19T03:19:20.226Z,102380.34
2023-02-19T03:22:31.281Z,102389.36
2023-02-19T03:25:59.230Z,102387.19
2023-02-19T03:29:26.017Z,102381.73
2023-02-19T03:32:38.693Z,102385.21
2023-02-19T03:35:54.506Z,102382.42
2023-02-19T03:39:26.949Z,102380.67
2023-02-19T03:42:42.393Z,102384.41
2023-02-19T03:45:56.154Z,102381.91
2023-02-19T03:48:59.148Z,102382.83
2023-02-19T03:52:11.825Z,102381.06
2023-02-19T03:55:16.259Z,102379.70
2023-02-19T03:58:22.721Z,102385.04
2023-02-19T04:01:27.971Z,102382.85
2023-02-19T04:04:31.884Z,102381.60
2023-02-19T04:07:36.429Z,102396.07
2023-02-19T04:10:47.445Z,102406.33
2023-02-19T04:13:59.785Z,102409.05
2023-02-19T04:17:12.006Z,102415.55
2023-02-19T04:20:07.542Z,102412.23
2023-02-19T04:36:43.246Z,102414.84
2023-02-19T04:40:33.949Z,102405.51
2023-02-19T04:44:38.951Z,102418.64
2023-02-19T04:51:56.082Z,102433.90
2023-02-19T04:55:27.126Z,102436.72
2023-02-19T04:59:17.523Z,102438.55
2023-02-19T05:03:46.200Z,102439.44
2023-02-19T05:07:49.013Z,102441.22
2023-02-19T05:11:44.051Z,102439.55
2023-02-19T05:23:38.178Z,102408.95
2023-02-19T05:35:08.175Z,102410.35
2023-02-19T05:42:19.580Z,102388.79
2023-02-19T05:54:31.734Z,102371.28
2023-02-19T05:58:01.227Z,102371.26
2023-02-19T06:01:36.523Z,102384.21
2023-02-19T06:05:20.015Z,102375.71
2023-02-19T06:24:47.661Z,102336.77
2023-02-19T06:28:08.122Z,102342.89
2023-02-19T06:31:20.345Z,102333.81
2023-02-19T06:38:18.924Z,102316.96
2023-02-19T06:41:52.148Z,102316.83
2023-02-19T06:57:55.199Z,102330.38
2023-02-19T07:01:27.752Z,102329.90
2023-02-19T07:04:38.161Z,102330.03
2023-02-19T07:07:52.229Z,102327.07
2023-02-19T07:19:14.508Z,102355.31
2023-02-19T07:22:53.216Z,102359.48
2023-02-19T07:26:06.189Z,102363.70
2023-02-19T07:29:17.774Z,102363.59
2023-02-19T07:32:33.058Z,102367.58
2023-02-19T07:43:26.298Z,102393.25
2023-02-19T07:46:57.740Z,102398.80
2023-02-19T07:54:53.089Z,102394.67
2023-02-19T08:02:52.612Z,102396.65
2023-02-19T08:11:41.916Z,102399.37
2023-02-19T08:27:35.613Z,102405.62
2023-02-19T08:51:34.424Z,102386.34
2023-02-19T09:07:50.545Z,102386.30
2023-02-19T09:11:49.179Z,102385.96
2023-02-19T09:15:23.981Z,102392.09
2023-02-19T09:19:32.088Z,102394.69
2023-02-19T09:23:38.718Z,102397.38
2023-02-19T09:27:10.975Z,102395.27
2023-02-19T09:31:18.428Z,102391.14
2023-02-19T09:35:29.637Z,102384.92
2023-02-19T09:43:42.532Z,102379.33
2023-02-19T09:47:59.056Z,102388.85
2023-02-19T10:28:53.179Z,102421.88
2023-02-19T10:32:23.542Z,102417.31
2023-02-19T10:35:14.044Z,102417.39
2023-02-19T10:38:07.829Z,102415.29
2023-02-19T10:41:05.153Z,102417.55
2023-02-19T10:43:59.807Z,102423.73
2023-02-19T10:46:55.087Z,102422.78
2023-02-19T10:49:48.669Z,102417.48
2023-02-19T10:52:37.551Z,102419.83
2023-02-19T10:55:31.388Z,102421.14
2023-02-19T10:58:28.046Z,102422.42
2023-02-19T11:01:19.584Z,102420.56
2023-02-19T11:04:17.268Z,102417.30
2023-02-19T11:07:15.810Z,102412.53
2023-02-19T11:10:08.274Z,102417.13
2023-02-19T11:13:02.163Z,102419.03
2023-02-19T11:15:54.477Z,102416.64
2023-02-19T11:18:44.726Z,102420.09
2023-02-19T11:21:35.445Z,102420.32
2023-02-19T11:24:47.931Z,102412.79
2023-02-19T11:27:53.608Z,102409.48
2023-02-19T11:30:45.852Z,102401.02
2023-02-19T11:33:37.239Z,102398.92
2023-02-19T11:36:35.459Z,102393.26
2023-02-19T11:39:28.998Z,102389.47
2023-02-19T11:42:41.972Z,102398.29
2023-02-19T11:45:36.078Z,102401.35
2023-02-19T11:48:55.033Z,102411.98
2023-02-19T11:52:02.884Z,102395.20
2023-02-19T11:55:06.383Z,102381.30
2023-02-19T11:58:09.011Z,102368.42
2023-02-19T12:01:04.854Z,102370.66
2023-02-19T12:04:37.880Z,102382.67
2023-02-19T12:07:39.995Z,102371.52
2023-02-19T12:10:34.830Z,102363.14
2023-02-19T12:13:32.682Z,102353.38
2023-02-19T12:16:26.167Z,102337.18
2023-02-19T12:19:56.969Z,102331.55
2023-02-19T12:22:51.948Z,102328.90
2023-02-19T12:25:48.093Z,102326.55
2023-02-19T12:28:51.088Z,102321.21
2023-02-19T12:31:57.935Z,102311.67
2023-02-19T12:35:15.506Z,102309.27
2023-02-19T12:38:13.711Z,102298.71
2023-02-19T12:41:23.399Z,102286.92
2023-02-19T12:44:16.069Z,102274.49
2023-02-19T12:47:07.005Z,102251.77
2023-02-19T12:50:02.005Z,102230.64
2023-02-19T12:52:55.973Z,102214.43
2023-02-19T12:55:55.958Z,102209.07
2023-02-19T12:58:50.481Z,102201.89
2023-02-19T13:01:45.747Z,102203.92
2023-02-19T13:07:54.422Z,102196.70
2023-02-19T13:10:44.579Z,102183.89
2023-02-19T13:13:37.969Z,102188.27
2023-02-19T13:16:40.441Z,102177.36
2023-02-19T13:19:33.126Z,102175.52
2023-02-19T13:22:44.411Z,102167.23
2023-02-19T13:25:43.697Z,102160.17
2023-02-19T13:33:23.284Z,102171.94
2023-02-19T13:36:35.713Z,102179.02
2023-02-19T13:40:10.079Z,102183.02
2023-02-19T13:44:02.384Z,102178.90
2023-02-19T13:47:29.149Z,102177.98
2023-02-19T13:51:18.713Z,102178.23
2023-02-19T13:54:22.910Z,102160.51
2023-02-19T13:57:37.997Z,102155.61
2023-02-19T14:00:51.876Z,102158.46
2023-02-19T14:04:10.558Z,102166.17
2023-02-19T14:07:36.377Z,102169.56
2023-02-19T14:10:53.873Z,102166.80
2023-02-19T14:14:25.197Z,102161.46
2023-02-19T14:17:45.275Z,102161.55
2023-02-19T14:21:34.185Z,102145.27
2023-02-19T14:24:44.956Z,102139.94
2023-02-19T14:27:54.960Z,102145.69
2023-02-19T14:31:29.657Z,102147.66
2023-02-19T14:34:59.410Z,102128.56
2023-02-19T14:38:18.295Z,102132.45
2023-02-19T14:43:22.108Z,102127.09
2023-02-19T14:46:16.555Z,102117.44
2023-02-19T14:49:07.336Z,102120.29
2023-02-19T14:52:00.658Z,102109.24
2023-02-19T14:54:52.644Z,102090.31
2023-02-19T14:57:45.452Z,102075.38
2023-02-19T15:00:36.455Z,102068.21
2023-02-19T15:03:27.177Z,102063.94
2023-02-19T15:06:18.090Z,102059.81
2023-02-19T15:09:07.220Z,102056.79
2023-02-19T15:11:59.005Z,102052.56
2023-02-19T15:14:48.550Z,102045.73
2023-02-19T15:17:39.229Z,102038.70
2023-02-19T15:20:28.832Z,102033.45
2023-02-19T15:23:22.320Z,102028.36
2023-02-19T15:26:18.948Z,102022.79
2023-02-19T15:29:11.094Z,102021.08
2023-02-19T15:32:01.781Z,102021.65
2023-02-19T15:34:57.266Z,102019.80
2023-02-19T15:37:46.050Z,102005.09
2023-02-19T15:40:35.258Z,102003.46
2023-02-19T15:43:26.107Z,102009.52
2023-02-19T15:46:17.964Z,102014.48
2023-02-19T15:49:09.224Z,102016.30
2023-02-19T15:52:00.223Z,102010.69
2023-02-19T15:54:55.654Z,102016.91
2023-02-19T15:57:50.942Z,102006.66
2023-02-19T16:00:41.525Z,102002.19
2023-02-19T16:03:30.954Z,101998.27
2023-02-19T16:06:19.792Z,101997.55
2023-02-19T16:09:19.902Z,101991.21
2023-02-19T16:12:20.875Z,101991.05
2023-02-19T16:15:15.245Z,101988.41
2023-02-19T16:18:14.693Z,101984.11
2023-02-19T16:21:08.071Z,101981.16
2023-02-19T16:23:59.317Z,101979.73
2023-02-19T16:26:47.766Z,101977.27
2023-02-19T16:29:36.888Z,101969.63
2023-02-19T16:32:31.322Z,101963.79
2023-02-19T16:35:35.948Z,101956.38
2023-02-19T16:38:27.331Z,101959.17
2023-02-19T16:41:18.887Z,101951.72
2023-02-19T16:44:31.149Z,101946.04
2023-02-19T16:47:44.469Z,101950.27
2023-02-19T16:50:53.279Z,101946.56
2023-02-19T16:53:54.347Z,101943.88
2023-02-19T16:56:54.726Z,101943.91
2023-02-19T16:59:43.428Z,101940.45
2023-02-19T17:02:34.756Z,101939.35
2023-02-19T17:05:44.348Z,101941.14
2023-02-19T17:08:34.695Z,101947.52
2023-02-19T17:11:36.477Z,101942.60
2023-02-19T17:14:25.283Z,101939.34
2023-02-19T17:17:34.240Z,101938.45
2023-02-19T17:20:45.602Z,101940.36
2023-02-19T17:23:47.432Z,101942.03
2023-02-19T17:26:54.886Z,101937.04
2023-02-19T17:30:04.051Z,101938.50
2023-02-19T17:32:57.657Z,101935.46
2023-02-19T17:36:07.264Z,101937.23
2023-02-19T17:38:56.035Z,101935.16
2023-02-19T17:42:02.970Z,101944.45
2023-02-19T17:45:02.889Z,101946.70
2023-02-19T17:48:12.822Z,101951.18
2023-02-19T17:51:21.530Z,101951.77
2023-02-19T17:54:30.282Z,101947.45
2023-02-19T17:57:18.950Z,101952.00
2023-02-19T18:00:23.141Z,101945.88
2023-02-19T18:03:22.521Z,101943.36
2023-02-19T18:06:19.106Z,101934.13
2023-02-19T18:09:27.839Z,101939.48
2023-02-19T18:12:18.800Z,101939.94
2023-02-19T18:15:28.388Z,101942.27
2023-02-19T18:18:23.292Z,101948.96
2023-02-19T18:21:13.378Z,101951.92
2023-02-19T18:24:09.522Z,101949.58
2023-02-19T18:27:11.841Z,101955.86
2023-02-19T18:30:00.639Z,101956.12
2023-02-19T18:33:10.542Z,101946.11
2023-02-19T18:36:11.954Z,101947.52
2023-02-19T18:39:21.633Z,101943.23
2023-02-19T18:42:10.194Z,101940.89
2023-02-19T18:45:19.130Z,101940.94
2023-02-19T18:48:27.880Z,101938.92
2023-02-19T18:51:36.575Z,101938.30
2023-02-19T18:54:36.326Z,101936.57
2023-02-19T18:57:45.264Z,101935.31
2023-02-19T19:00:39.190Z,101930.73
2023-02-19T19:03:48.055Z,101931.33
2023-02-19T19:06:58.275Z,101934.30
2023-02-19T19:10:06.985Z,101932.80
2023-02-19T19:12:55.611Z,101925.67
2023-02-19T19:15:49.243Z,101928.10
2023-02-19T19:19:00.700Z,101931.23
2023-02-19T19:21:53.284Z,101929.05
2023-02-19T19:24:42.683Z,101926.10
2023-02-19T19:27:54.945Z,101931.23
2023-02-19T19:31:04.225Z,101924.23
2023-02-19T19:34:16.045Z,101924.06
2023-02-19T19:37:17.963Z,101927.16
2023-02-19T19:40:27.432Z,101922.48
2023-02-19T19:43:37.298Z,101918.46
2023-02-19T19:47:03.969Z,101910.32
2023-02-19T19:50:13.997Z,101910.79
2023-02-19T19:53:23.190Z,101909.71
2023-02-19T19:56:31.471Z,101905.85
2023-02-19T19:59:41.079Z,101902.59
2023-02-19T20:02:43.260Z,101904.34
2023-02-19T20:05:50.723Z,101899.27
2023-02-19T20:09:02.613Z,101895.61
2023-02-19T20:11:58.191Z,101895.45
2023-02-19T20:14:49.697Z,101902.17
2023-02-19T20:17:58.515Z,101894.42
2023-02-19T20:21:08.409Z,101896.86
2023-02-19T20:24:12.987Z,101900.94
2023-02-19T20:27:03.590Z,101894.11
2023-02-19T20:29:52.318Z,101892.61
2023-02-19T20:33:01.037Z,101891.80
2023-02-19T20:36:10.306Z,101892.83
2023-02-19T20:39:11.622Z,101899.09
2023-02-19T20:42:20.389Z,101899.70
2023-02-19T20:45:30.284Z,101910.52
2023-02-19T20:48:39.403Z,101912.27
2023-02-19T20:51:51.295Z,101919.00
2023-02-19T20:54:54.633Z,101913.88
2023-02-19T20:57:53.512Z,101917.30
2023-02-19T21:01:02.052Z,101918.65
2023-02-19T21:04:10.800Z,101919.05
2023-02-19T21:07:19.854Z,101918.62
2023-02-19T21:10:12.434Z,101909.97
2023-02-19T21:13:13.994Z,101911.92
2023-02-19T21:16:13.522Z,101911.06
2023-02-19T21:19:06.935Z,101908.14
2023-02-19T21:22:09.454Z,101906.27
2023-02-19T21:25:00.995Z,101919.98
2023-02-19T21:28:08.493Z,101910.59
2023-02-19T21:31:17.571Z,101909.48
2023-02-19T21:34:27.935Z,101906.98
2023-02-19T21:37:37.236Z,101903.70
2023-02-19T21:40:44.807Z,101907.17
2023-02-19T21:43:35.993Z,101906.69
2023-02-19T21:46:32.660Z,101914.11
2023-02-19T21:49:42.012Z,101918.20
2023-02-19T21:52:33.934Z,101913.13
2023-02-19T21:55:57.451Z,101915.49
2023-02-19T21:59:06.366Z,101910.59
2023-02-19T22:02:17.520Z,101915.23
2023-02-19T22:05:14.780Z,101913.13
2023-02-19T22:08:23.768Z,101911.73
2023-02-19T22:11:32.781Z,101913.19
2023-02-19T22:14:41.654Z,101913.27
2023-02-19T22:17:50.531Z,101909.98
2023-02-19T22:20:59.493Z,101912.04
2023-02-19T22:24:13.823Z,101902.58
2023-02-19T22:27:24.204Z,101899.70
2023-02-19T22:30:32.988Z,101895.00
2023-02-19T22:33:42.579Z,101894.40
2023-02-19T22:36:51.812Z,101891.16
2023-02-19T22:40:01.561Z,101889.94
2023-02-19T22:43:11.085Z,101889.09
2023-02-19T22:46:21.267Z,101882.56
2023-02-19T22:49:30.648Z,101879.31
2023-02-19T22:52:30.686Z,101882.27
2023-02-19T22:55:24.426Z,101873.55
2023-02-19T22:58:26.640Z,101863.55
2023-02-19T23:01:35.542Z,101868.70
2023-02-19T23:04:35.046Z,101858.75
2023-02-19T23:07:36.600Z,101857.20
2023-02-19T23:10:45.581Z,101860.14
2023-02-19T23:13:54.941Z,101855.70
2023-02-19T23:16:43.763Z,101850.64
2023-02-19T23:19:55.857Z,101844.34
2023-02-19T23:23:03.352Z,101848.36
2023-02-19T23:26:05.085Z,101843.58
2023-02-19T23:29:16.651Z,101843.89
2023-02-19T23:32:25.728Z,101847.55
2023-02-19T23:35:34.714Z,101840.23
2023-02-19T23:38:45.178Z,101840.41
2023-02-19T23:41:47.953Z,101836.77
2023-02-19T23:44:57.110Z,101840.80
2023-02-19T23:47:58.250Z,101851.55
2023-02-19T23:51:00.148Z,101846.40
2023-02-19T23:54:09.012Z,101843.02
2023-02-19T23:57:17.976Z,101857.54
